Tiempo atmosférico en la estación meteorológica de Colmenar Viejo, Madrid (1004 m.)



Fecha
DESCASC
Temp. máxima en grados centígrados (hora)
DESCASC
Temp. mínima en grados centígrados (hora)
DESCASC
Temp. media en grados centígrados
DESCASC
Racha de viento máxima en m/sg (hora)
DESCASC
Velocidad máxima media en intervalos de 10 minutos(hora)
DESCASC
Precipitaciones diarias en mm
DESCASC
Precipitaciones de 00:00 a 06:00 en mm
DESCASC
Precipitaciones de 06:00 a 12:00 en mm
DESCASC
Precipitaciones de 12:00 a 18:00 en mm
DESCASC
Precipitaciones de 18:00 a 24:00 en mm
DESCASC
16-02-2020 13.1 (17:00) 4.9 (08:30) 9 5.83 (14:20) 3.33 (14:30) 0.1 0 0.1 0 0
15-02-2020 13.1 (16:40) 4.5 (06:00) 8.8 5.56 (16:50) 3.33 (16:10) 0.1 0 0.1 0 0
14-02-2020 12.1 (16:50) 1.9 (08:30) 7 3.89 (13:40) 1.94 (00:50) 0.1 0 0.1 0 0
13-02-2020 12.9 (15:40) 5.9 (00:00) 9.4 6.67 (15:30) 4.17 (15:50) 0.4 0.4 0 0 0
12-02-2020 11.1 (12:20) 5.6 (00:00) 8.4 10.83 (13:10) 3.33 (13:00) 0 0 0 0 0
11-02-2020 10.6 (15:20) 4.3 (00:00) 7.5 8.61 (14:40) 2.22 (01:40) 0.2 0 0.2 0 0
10-02-2020 12 (16:20) 2.8 (00:00) 7.4 5 (14:00) 2.78 (12:40) 0.1 0 0.1 0 0
09-02-2020 6.9 (17:10) 1 (00:00) 4 4.17 (16:40) 2.22 (04:10) 0.2 0.1 0.1 0 0
08-02-2020 8.6 (17:00) 3.5 (00:00) 6.1 4.44 (16:10) 2.78 (08:40) 0.1 0 0.1 0 0
07-02-2020 10.2 (16:00) 3 (00:00) 6.6 11.39 (13:10) 2.78 (16:10) 0 0 0 0 0
06-02-2020 8.6 (15:30) 1.9 (00:00) 5.3 10 (10:00) 2.5 (14:10) 0 0 0 0 0
05-02-2020 11.2 (16:40) 1.8 (00:00) 6.5 11.67 (14:10) 3.06 (09:20) 0 0 0 0 0
04-02-2020 16.4 (16:10) 6.4 (00:00) 11.4 10.28 (20:40) 5.83 (21:00) 0 0 0 0 0
03-02-2020 16.6 (15:40) 3.4 (05:50) 10 5.56 (14:10) 3.33 (16:00) 0.2 0.2 0 0 0
02-02-2020 9.1 (15:20) 5 (00:00) 7.1 3.89 (01:30) 2.78 (01:30) 0.2 0.1 0.1 0 0
01-02-2020 15.3 (14:50) 7.3 (00:00) 11.3 7.78 (16:40) 5.28 (17:00) 0.4 0.3 0 0 0.1
31-01-2020 11.2 (15:00) 5.5 (00:00) 8.3 7.78 (13:10) 4.17 (16:10) 0.3 0.1 0 0 0.2
30-01-2020 8.4 (17:10) 5.3 (00:00) 6.8 6.39 (19:20) 4.17 (19:20) 0.4 0.1 0.1 0 0.2
29-01-2020 9.7 (14:00) 5.7 (00:00) 7.7 9.17 (00:50) 5.28 (00:50) 0.1 0 0 0 0.1
28-01-2020 9.3 (14:20) 4.5 (00:00) 6.9 14.44 (17:30) 6.67 (16:10) 0.2 0.1 0.1 0 0
27-01-2020 4.6 (23:59) -1.9 (-00:0) 1.3 6.11 (23:50) 3.89 (23:50) 0.3 0 0.1 0.2 0
26-01-2020 8.2 (16:00) 1.4 (00:00) 4.8 6.39 (19:00) 4.44 (18:50) 0.2 0.1 0.1 0 0
25-01-2020 5.4 (15:10) 3.1 (00:00) 4.3 6.11 (08:50) 3.61 (08:10) 13 4 2.6 5.2 1.2
24-01-2020 4.9 (16:10) 2.8 (00:00) 3.9 5.28 (00:50) 3.61 (07:30) 5.7 0.1 4.4 1.2 0
23-01-2020 7.2 (15:40) 1.4 (00:00) 4.3 9.17 (11:20) 4.72 (01:40) -- -- -- 0.2 0
22-01-2020 7.1 (15:30) 1.5 (00:00) 4.3 15.28 (02:50) 9.72 (07:00) -- -- -- -- --

Gráficas

Temp. máximas Temp. mínimas Temp. medias Precipitaciones Rachas de viento máximas Velocidades máximas media en intervalos de 10 minutos

Datos horarios

Fecha y hora oficial Temperatura (ºC) Velocidad del viento (km/h) Dirección del viento Racha (km/h) Dirección de racha Precipitación (mm) Presión (hPa) Tendencia (hPa) Humedad (%)
2020-02-20 23:00:00 10.3 7 Norte 13 Norte 0 910.6 0.5 42
2020-02-20 22:00:00 10 7 Norte 17 Nordeste 0 910.3 0.6 45
2020-02-20 21:00:00 10 10 Norte 14 Norte 0 910.2 1.1 46
2020-02-20 20:00:00 10.2 7 Norte 11 Norte 0 910.1 1.1 46
2020-02-20 19:00:00 11.2 2 Sudeste 15 Sudeste 0 909.7 0.9 44
2020-02-20 18:00:00 13 5 Este 9 Este 0 909.1 0.3 43
2020-02-20 17:00:00 13.5 5 Sudeste 15 Sudeste 0 909 -0.4 42
2020-02-20 16:00:00 13.4 8 Sudeste 13 Sudeste 0 908.8 -1 42
2020-02-20 15:00:00 13.2 4 Este 9 Este 0 908.8 -1.1 45
2020-02-20 14:00:00 12.2 3 Sudoeste 15 Este 0 909.4 -0.6 46
2020-02-20 13:00:00 10.8 6 Sudeste 17 Sudeste 0 909.8 0.2 49
2020-02-20 12:00:00 10.5 4 Sur 14 Sur 0 909.9 0.6 49
2020-02-20 11:00:00 9.6 2 Sudeste 27 Sur 0 910 1 51
2020-02-20 10:00:00 8.5 4 Este 5 Este 0 909.6 0.6 50
2020-02-20 09:00:00 6 0 Calma 4 Sudeste 0 909.3 0 54
2020-02-20 08:00:00 4.7 0 Calma 3 Este 0 909 -0.7 53
2020-02-20 07:00:00 5.1 3 Sudoeste 10 Noroeste 0 909 -1 51
2020-02-20 06:00:00 5.3 8 Noroeste 11 Noroeste 0 909.3 -1.5 51
2020-02-20 05:00:00 5.7 4 Oeste 8 Oeste 0 909.7 -1.7 54
2020-02-20 04:00:00 5.6 5 Noroeste 9 Oeste 0 910 -1.6 55
2020-02-20 03:00:00 5.9 6 Oeste 9 Oeste 0 910.8 -1.2 55
2020-02-20 02:00:00 5.7 4 Noroeste 7 Noroeste 0 911.4 -0.8 54
2020-02-20 01:00:00 6.1 3 Oeste 5 Oeste 0 911.6 -0.9 53
2020-02-20 00:00:00 6.7 4 Oeste 8 Noroeste 0 912 -0.9 53
2020-02-19 23:00:00 5.9 6 Noroeste 9 Noroeste 0 912.2 -0.9 54
2020-02-19 22:00:00 6.8 5 Noroeste 6 Noroeste 0 912.5 -0.4 49
2020-02-19 21:00:00 8.5 5 Sur 24 Sudeste 0 912.9 0.1 45
2020-02-19 20:00:00 9 4 Sur 29 Nordeste 0 913.1 0 44
2020-02-19 19:00:00 10 0 Calma 6 Sudoeste 0 912.9 -0.6 42
2020-02-19 18:00:00 11.9 4 Sur 9 Sur 0 912.8 -1.3 41
2020-02-19 17:00:00 12.1 7 Sudeste 15 Este 0 913.1 -1.9 42
2020-02-19 16:00:00 12 5 Este 13 Sudeste 0 913.5 -2.3 44
2020-02-19 15:00:00 11 7 Este 17 Sur 0 914.1 -2.1 47
2020-02-19 14:00:00 10.5 2 Nordeste 15 Este 0 915 -1.4 48
2020-02-19 13:00:00 9.3 6 Este 22 Este 0 915.8 -0.4 52
2020-02-19 12:00:00 8.2 4 Sudeste 12 Este 0 916.2 0.8 51
2020-02-19 11:00:00 6.7 0 Calma 10 Sur 0 916.4 1.7 57
2020-02-19 10:00:00 4.6 4 Nordeste 12 Este 0 916.2 1.4 66
2020-02-19 09:00:00 2.3 0 Calma 5 Noroeste 0 915.4 1.1 76
2020-02-19 08:00:00 1.5 3 Sudoeste 5 Sudoeste 0 914.7 0.3 78
2020-02-19 07:00:00 1.5 4 Este 9 Norte 0 914.8 0 76
2020-02-19 06:00:00 1.1 5 Noroeste 7 Noroeste 0 914.3 -0.6 81
2020-02-19 05:00:00 1.9 4 Sudoeste 8 Sudeste 0 914.4 -0.5 75
2020-02-19 04:00:00 3.3 0 Calma 8 Noroeste 0 914.8 0 68
2020-02-19 03:00:00 3.3 0 Calma 10 Norte 0 914.9 -0.4 69
2020-02-19 02:00:00 3.8 3 Oeste 8 Sur 0 914.9 -0.2 70
2020-02-19 01:00:00 5.3 4 Sudeste 12 Este 0 914.8 0.4 62
2020-02-19 00:00:00 5.3 3 Norte 13 Nordeste 0 915.3 0.8 62
2020-02-18 23:00:00 5.9 3 Norte 14 Norte 0 915.1 0.9 61
2020-02-18 22:00:00 6.1 5 Norte 17 Sudeste 0 914.4 0.6 63
2020-02-18 21:00:00 6.3 6 Noroeste 12 Noroeste 0 914.5 0.8 66
2020-02-18 20:00:00 6.8 5 Noroeste 8 Noroeste 0 914.2 0.7 63
2020-02-18 19:00:00 8.3 4 Oeste 31 Este 0 913.8 0.2 60
2020-02-18 18:00:00 9.4 3 Este 30 Sudeste 0 913.7 0 53
2020-02-18 17:00:00 9.4 2 Sudoeste 8 Sur 0 913.5 -0.9 54
2020-02-18 16:00:00 9.6 5 Sur 12 Sur 0 913.6 -1.5 53
2020-02-18 15:00:00 10.6 6 Sudeste 22 Sur 0 913.7 -1.8 50
2020-02-18 14:00:00 9.5 8 Sudeste 17 Este 0 914.4 -1.1 55
2020-02-18 13:00:00 9 4 Este 15 Este 0 915.1 -0.1 55
2020-02-18 12:00:00 8.2 9 Este 21 Este 0 915.5 0.5 55
2020-02-18 11:00:00 6.6 15 Este 23 Este 0 915.5 1.2 64
2020-02-18 10:00:00 5.5 4 Nordeste 14 Este 0 915.2 1.3 73
2020-02-18 09:00:00 2.1 4 Noroeste 18 Nordeste 0 915 1.4 86
2020-02-18 08:00:00 2.7 8 Este 12 Este 0 914.3 0.4 82
2020-02-18 07:00:00 2.3 6 Sudeste 9 Sudeste 0 913.9 -0.4 87
2020-02-18 06:00:00 2.9 4 Noroeste 6 Nordeste 0 913.6 -1 84
2020-02-18 05:00:00 3.3 4 Nordeste 12 Nordeste 0 913.9 -1 81
2020-02-18 04:00:00 3.6 5 Nordeste 11 Nordeste 0 914.3 -0.4 81
2020-02-18 03:00:00 4.2 3 Norte 16 Este 0 914.6 0 79
2020-02-18 02:00:00 5.1 0 Calma 6 Este 0 914.9 0.5 91
2020-02-18 01:00:00 5.8 4 Sudoeste 8 Nordeste 0 914.7 0.7 83
2020-02-18 00:00:00 6 4 Norte 17 Norte 0 914.6 1 66
2020-02-17 23:00:00 5.8 7 Nordeste 18 Nordeste 0 914.4 0.9 70
2020-02-17 22:00:00 6.3 6 Norte 31 Este 0 914 1.3 63
2020-02-17 21:00:00 8 8 Este 21 Este 0 913.6 1.3 87
2020-02-17 20:00:00 8.1 2 Sudeste 12 Sudeste 0 913.5 1.7 99
2020-02-17 19:00:00 8.2 0 Calma 21 Este 0 912.7 0.8 98
2020-02-17 18:00:00 8.6 4 Este 40 Sudoeste 0 912.3 0.5 97
2020-02-17 17:00:00 8.6 6 Sudeste 9 Sudeste 0 911.8 -0.3 97
2020-02-17 16:00:00 8.3 5 Sudeste 11 Sudeste 0 911.9 -0.7 99
2020-02-17 15:00:00 7.7 8 Sudeste 12 Sudeste 0 911.8 -1.1 99
2020-02-17 14:00:00 7.1 6 Sudeste 12 Sudeste 0 912.1 -0.5 99
2020-02-17 13:00:00 6.8 6 Sudeste 15 Sudeste 0 912.6 0.6 99
2020-02-17 12:00:00 6.6 0 Calma 9 Este 0 912.9 1.5 99
2020-02-17 11:00:00 5.3 5 Sudeste 11 Este 0 912.6 2 99
2020-02-17 10:00:00 4.9 3 Este 8 Este 0 912 1.8 99
2020-02-17 09:00:00 3.9 0 Calma 10 Este 0 911.4 1.1 99
2020-02-17 08:00:00 3.4 7 Este 10 Este 0 910.6 0.2 99
2020-02-17 07:00:00 5 3 Este 6 Este 0 910.2 -0.5 99
2020-02-17 06:00:00 5.3 4 Este 5 Sudeste 0 910.3 -0.7 99
2020-02-17 05:00:00 5.7 4 Nordeste 6 Este 0 910.4 -1 99
2020-02-17 04:00:00 6.3 5 Sudeste 7 Sur 0 910.7 -0.8 95
2020-02-17 03:00:00 6.8 3 Este 5 Este 0 911 -0.6 91
2020-02-17 02:00:00 7.1 2 Sudeste 5 Sudeste 0 911.4 -0.3 88
2020-02-17 01:00:00 7.5 0 Calma 5 Este 0 911.5 0.1 85
2020-02-17 00:00:00 7.6 5 Este 8 Este 0 911.6 0.2 83
2020-02-16 23:00:00 8.7 0 Calma 10 Norte 0 911.7 0.4 77
2020-02-16 22:00:00 8.9 4 Noroeste 7 Nordeste 0 911.4 0.5 76
2020-02-16 21:00:00 9.4 3 Sudoeste 12 Sudoeste 0 911.4 0.5 73
2020-02-16 20:00:00 10.1 9 Sudoeste 15 Sudoeste 0 911.3 0.5 74
2020-02-16 19:00:00 10.7 9 Sudoeste 15 Sudoeste 0 910.9 0.2 76
2020-02-16 18:00:00 12.4 9 Sudoeste 16 Sudoeste 0 910.9 -0.1 68
2020-02-16 17:00:00 13 9 Sur 17 Sudoeste 0 910.8 -0.6 66
2020-02-16 16:00:00 12.2 9 Sur 19 Sudoeste 0 910.7 -1.3 67
2020-02-16 15:00:00 11.2 12 Sudoeste 21 Sur 0 911 -1.4 76
2020-02-16 14:00:00 9.7 9 Sur 19 Sur 0 911.4 -1 96
2020-02-16 13:00:00 6.8 9 Sudoeste 18 Sudoeste 0 912 -0.2 99
2020-02-16 12:00:00 6.3 7 Sur 12 Sur 0 912.4 0.7 99
2020-02-16 11:00:00 5.9 4 Sur 12 Sudeste 0 912.4 1 99
2020-02-16 10:00:00 5.4 6 Sudeste 10 Sudeste 0.1 912.2 1 99
2020-02-16 09:00:00 5.1 4 Sur 10 Sur 0 911.7 0.3 99
2020-02-16 08:00:00 5.3 5 Sudeste 10 Sur 0 911.4 0.2 99
2020-02-16 07:00:00 5.4 4 Oeste 8 Sudoeste 0 911.2 -0.5 99
2020-02-16 06:00:00 5.3 0 Calma 9 Sudeste 0 911.4 -0.5 97
2020-02-16 05:00:00 6.2 6 Sur 10 Sur 0 911.2 -0.9 91
2020-02-16 04:00:00 6 4 Oeste 8 Sudoeste 0 911.7 -0.5 91
2020-02-16 03:00:00 6.5 5 Oeste 8 Oeste 0 911.9 -0.6 91
2020-02-16 02:00:00 6.8 0 Calma 8 Sudoeste 0 912.1 -0.2 91
2020-02-16 01:00:00 7.1 0 Calma 5 Sudeste 0 912.2 0.1 91
2020-02-16 00:00:00 7.4 0 Calma 4 Sudeste 0 912.5 0.6 89
2020-02-15 23:00:00 7.9 0 Calma 7 Noroeste 0 912.3 0.2 88
2020-02-15 22:00:00 8.1 6 Noroeste 9 Noroeste 0 912.1 0.9 85
2020-02-15 21:00:00 8.7 7 Noroeste 10 Noroeste 0 911.9 1.3 79
2020-02-15 20:00:00 8.7 0 Calma 8 Sudoeste 0 912.1 1.7 74
2020-02-15 19:00:00 9.6 4 Sur 14 Sur 0 911.2 0.5 71
2020-02-15 18:00:00 11 9 Sur 16 Sur 0 910.6 -0.1 67
2020-02-15 17:00:00 12.4 10 Sur 20 Sur 0 910.4 -0.8 62
2020-02-15 16:00:00 12.6 11 Sur 19 Sur 0 910.7 -1.2 64
2020-02-15 15:00:00 12 10 Sur 19 Sudoeste 0 910.7 -1.2 70
2020-02-15 14:00:00 11.3 9 Sur 18 Sur 0 911.2 -0.5 73
2020-02-15 13:00:00 10.4 7 Sur 15 Sudeste 0 911.9 1 81
2020-02-15 12:00:00 9.6 6 Sudeste 12 Sudeste 0 911.9 1.3 88
2020-02-15 11:00:00 8.4 4 Sur 9 Sur 0 911.7 1.5 95
2020-02-15 10:00:00 7.2 3 Sur 6 Sur 0 910.9 1.2 99
2020-02-15 09:00:00 5.2 0 Calma 6 Oeste 0.1 910.6 1 99
2020-02-15 08:00:00 5.1 3 Sudoeste 5 Oeste 0 910.2 0.8 99
2020-02-15 07:00:00 5 0 Calma 5 Este 0 909.7 0.3 99
2020-02-15 06:00:00 4.7 4 Este 8 Nordeste 0 909.6 -0.1 99
2020-02-15 05:00:00 5.2 3 Oeste 6 Oeste 0 909.4 -0.6 98
2020-02-15 04:00:00 6.3 0 Calma 2 Norte 0 909.4 -0.9 96
2020-02-15 03:00:00 6.3 0 Calma 3 Este 0 909.7 -0.6 96
2020-02-15 02:00:00 6.3 0 Calma 4 Noroeste 0 910 -0.7 95
2020-02-15 01:00:00 6.7 0 Calma 2 Nordeste 0 910.3 -0.1 93
2020-02-15 00:00:00 6.7 0 Calma 4 Este 0 910.3 0.3 93
2020-02-14 23:00:00 6.6 0 Calma 7 Noroeste 0 910.7 0.5 92
2020-02-14 22:00:00 7.2 5 Noroeste 7 Noroeste 0 910.4 0.4 85
2020-02-14 21:00:00 7.4 4 Noroeste 4 Noroeste 0 910 0.4 82
2020-02-14 20:00:00 8.2 0 Calma 3 Sur 0 910.2 0.5 78
2020-02-14 19:00:00 9.1 4 Sur 8 Sur 0 910 0.1 73
2020-02-14 18:00:00 10.8 5 Sudeste 9 Sur 0 909.6 -0.4 68
2020-02-14 17:00:00 11.7 5 Sur 12 Sudoeste 0 909.7 -0.8 66
2020-02-14 16:00:00 11 6 Sudoeste 12 Sur 0 909.9 -1.1 69
2020-02-14 15:00:00 9.8 6 Sur 13 Sudeste 0 910 -1.4 75
2020-02-14 14:00:00 9 5 Sur 14 Sur 0 910.5 -0.9 84
2020-02-14 13:00:00 7.1 6 Sudeste 12 Este 0 911 -0.4 99
2020-02-14 12:00:00 5.8 5 Sudeste 8 Sudeste 0 911.4 0.4 99
2020-02-14 11:00:00 5.1 0 Calma 6 Nordeste 0 911.4 1 99
2020-02-14 10:00:00 3.5 3 Oeste 5 Oeste 0 911.4 1.1 99
2020-02-14 09:00:00 2.3 0 Calma 6 Norte 0.1 911 0.9 99
2020-02-14 08:00:00 2.2 0 Calma 5 Oeste 0 910.4 0.5 99
2020-02-14 07:00:00 2.4 4 Este 5 Nordeste 0 910.3 0.1 99
2020-02-14 06:00:00 4.4 0 Calma 5 Sur 0 910.1 -0.2 99
2020-02-14 05:00:00 5.1 0 Calma 4 Noroeste 0 909.9 -0.7 98
2020-02-14 04:00:00 5.6 2 Nordeste 6 Norte 0 910.2 -0.4 98
2020-02-14 03:00:00 6.1 5 Norte 9 Norte 0 910.3 -0.3 98
2020-02-14 02:00:00 6.2 6 Norte 9 Norte 0 910.6 0.3 99
2020-02-14 01:00:00 6.5 6 Norte 10 Noroeste 0 910.6 0.7 99
2020-02-14 00:00:00 6 4 Norte 11 Nordeste 0 910.6 1.1 94
2020-02-13 23:00:00 6.6 4 Nordeste 9 Nordeste 0 910.3 1 94
2020-02-13 22:00:00 6.9 6 Este 14 Este 0 909.9 1 89
2020-02-13 21:00:00 6.9 5 Nordeste 15 Este 0 909.5 0.8 93
2020-02-13 20:00:00 7.5 7 Nordeste 12 Nordeste 0 909.3 0.8 93
2020-02-13 19:00:00 8.7 6 Sudeste 20 Sur 0 908.9 0.7 85
2020-02-13 18:00:00 11 13 Sur 23 Sur 0 908.7 0.4 70
2020-02-13 17:00:00 12.3 12 Sur 24 Sur 0 908.5 -0.3 67
2020-02-13 16:00:00 11.9 13 Sur 24 Sur 0 908.2 -0.7 67
2020-02-13 15:00:00 11.1 11 Sudoeste 19 Sudoeste 0 908.3 -1 72
2020-02-13 14:00:00 10 10 Sudoeste 18 Sudoeste 0 908.8 -0.3 99
2020-02-13 13:00:00 8 8 Sur 14 Sur 0 908.9 0.1 99
2020-02-13 12:00:00 7.3 5 Sur 10 Sur 0 909.3 1 99
2020-02-13 11:00:00 6.9 5 Sur 10 Sur 0 909.1 1.3 99
2020-02-13 10:00:00 6.6 6 Sudeste 9 Sudeste 0 908.8 1.3 99
2020-02-13 09:00:00 6.3 3 Sur 12 Sudoeste 0 908.3 1.3 99
2020-02-13 08:00:00 6.3 4 Sudoeste 10 Sudoeste 0 907.8 1.1 99
2020-02-13 07:00:00 6.4 6 Sudoeste 11 Sudoeste 0 907.5 0.3 99
2020-02-13 06:00:00 6.3 8 Sudoeste 13 Sudoeste 0 907 -0.6 99
2020-02-13 05:00:00 6.3 8 Sudoeste 14 Sur 0.1 906.7 -1.2 99
2020-02-13 04:00:00 6.5 6 Sur 10 Sudoeste 0 907.2 -0.9 99
2020-02-13 03:00:00 6.6 6 Sudoeste 10 Sudoeste 0.1 907.6 -0.3 99
2020-02-13 02:00:00 6.6 6 Sur 10 Sur 0.1 907.9 -0.1 99
2020-02-13 01:00:00 6.5 4 Sur 10 Sur 0.1 908.1 0.2 99
2020-02-13 00:00:00 6.6 5 Sudeste 7 Sudeste 0 907.9 0.2 99
2020-02-12 23:00:00 6.6 5 Sudeste 10 Este 0 908 0.2 99
2020-02-12 22:00:00 6.8 7 Sudeste 12 Sudeste 0 907.9 0.4 99
2020-02-12 21:00:00 6.8 9 Sudeste 14 Sudeste 0 907.7 0.4 99
2020-02-12 20:00:00 7.3 5 Sudeste 9 Sudeste 0 907.8 0.5 99
2020-02-12 19:00:00 7.9 4 Sur 11 Sudeste 0 907.5 -0.1 99
2020-02-12 18:00:00 8.7 8 Sudeste 13 Sudeste 0 907.3 -0.5 98
2020-02-12 17:00:00 9.7 6 Sudeste 12 Sur 0 907.3 -1 90
2020-02-12 16:00:00 10.1 9 Sudeste 13 Sur 0 907.6 -1.3 85
2020-02-12 15:00:00 10.6 7 Este 29 Sudeste 0 907.8 -1.3 88
2020-02-12 14:00:00 8.7 12 Sudeste 39 Sudeste 0 908.3 -0.8 96
2020-02-12 13:00:00 10.2 12 Sudeste 38 Sudeste 0 908.9 -0.2 87
2020-02-12 12:00:00 10.2 8 Sudeste 18 Este 0 909.1 0.1 91
2020-02-12 11:00:00 6.5 3 Sudeste 10 Sur 0 909.1 0.3 99
2020-02-12 10:00:00 8 3 Sur 9 Sur 0 909.1 0.3 92
2020-02-12 09:00:00 8.2 4 Norte 6 Norte 0 909 0.2 95
2020-02-12 08:00:00 7.6 4 Nordeste 8 Norte 0 908.8 0.2 99
2020-02-12 07:00:00 7.5 4 Norte 7 Norte 0 908.8 -0.1 99
2020-02-12 06:00:00 7.1 4 Norte 10 Noroeste 0 908.8 -0.3 99
2020-02-12 05:00:00 7.2 0 Calma 12 Norte 0 908.6 -0.9 99
2020-02-12 04:00:00 6.4 0 Calma 14 Noroeste 0 908.9 -0.5 99
2020-02-12 03:00:00 6 6 Sudeste 12 Sur 0 909.1 -0.6 99
2020-02-12 02:00:00 8.2 5 Este 12 Nordeste 0 909.5 -0.7 95
2020-02-12 01:00:00 7.4 0 Calma 6 Sur 0 909.4 -0.7 99
2020-02-12 00:00:00 7.7 0 Calma 7 Noroeste 0 909.7 -0.4 99
2020-02-11 23:00:00 7.4 4 Norte 7 Norte 0 910.2 0 99
2020-02-11 22:00:00 7.5 0 Calma -- -- 0 910.1 0 99
2020-02-11 21:00:00 8 0 Calma -- -- 0 910.1 0 99
2020-02-11 20:00:00 8.2 0 Calma 0 Calma 0 910.2 0 99
2020-02-11 19:00:00 8.2 2 Sur 9 Sudeste 0 910.1 -0.4 99
2020-02-11 18:00:00 8.5 5 Sur 10 Sudeste 0 910.1 -0.4 99
2020-02-11 17:00:00 9.8 7 Sudeste 10 Sudeste 0 910.2 -1.2 96
2020-02-11 16:00:00 9.8 3 Este 11 Sur 0 910.5 -1.7 96
2020-02-11 15:00:00 9.9 4 Sudeste 31 Sudeste 0 910.5 -2.1 99
2020-02-11 14:00:00 8.4 3 Sur 7 Sudoeste 0 911.4 -1.1 99
2020-02-11 13:00:00 7.3 0 Calma 11 Sur 0 912.2 -0.3 99
2020-02-11 12:00:00 6.9 7 Sur 12 Sudeste 0 912.6 0.3 99
2020-02-11 11:00:00 6.8 0 Calma 6 Noroeste 0 912.5 0.3 99
2020-02-11 10:00:00 5.9 0 Calma 9 Este 0.1 912.5 0.7 99
2020-02-11 09:00:00 4.9 5 Este 10 Sudeste 0.1 912.3 0 99
2020-02-11 08:00:00 5.1 3 Sur 9 Sudeste 0 912.2 -0.1 99
2020-02-11 07:00:00 6.6 4 Norte 7 Norte 0 911.8 -1.3 99
2020-02-11 06:00:00 6.7 0 Calma 7 Noroeste 0 912.3 -1.4 99
2020-02-11 05:00:00 7.5 0 Calma 5 Nordeste 0 912.3 -1.8 99
2020-02-11 04:00:00 7.4 3 Nordeste 7 Norte 0 913.1 -1.6 99
2020-02-11 03:00:00 7.4 6 Norte 9 Norte 0 913.7 -1.5 99
2020-02-11 02:00:00 7.1 7 Noroeste 11 Noroeste 0 914.1 -1.2 99
2020-02-11 01:00:00 8 3 Noroeste 5 Noroeste 0 914.7 -0.4 99
2020-02-11 00:00:00 8.3 0 Calma 6 Nordeste 0 915.2 0.2 99
2020-02-10 23:00:00 8.5 3 Nordeste 6 Este 0 915.3 0.3 99
2020-02-10 22:00:00 8.6 4 Nordeste 8 Este 0 915.1 0.5 99
2020-02-10 21:00:00 8.6 5 Este 9 Este 0 915 0.9 99
2020-02-10 20:00:00 9.1 5 Este 11 Sur 0 915 0.6 96
2020-02-10 19:00:00 10 10 Sudoeste 13 Sudoeste 0 914.6 -0.1 93
2020-02-10 18:00:00 11 6 Sudeste 11 Sur 0 914.1 -1.1 85
2020-02-10 17:00:00 11.6 8 Sur 15 Sur 0 914.4 -1.5 84
2020-02-10 16:00:00 11.6 9 Sur 15 Sudoeste 0 914.7 -2.3 86
2020-02-10 15:00:00 9.6 7 Sur 13 Sudeste 0 915.2 -2 99
2020-02-10 14:00:00 8.1 9 Sudeste 18 Sudeste 0 915.9 -0.8 99
2020-02-10 13:00:00 7.5 8 Sudeste 14 Sudeste 0 917 0.8 99
2020-02-10 12:00:00 8.3 4 Sudeste 14 Sudeste 0 917.2 1 99
2020-02-10 11:00:00 7.3 0 Calma 7 Sudeste 0 916.7 0.9 99
2020-02-10 10:00:00 4.7 6 Este 9 Este 0 916.2 0.7 99
2020-02-10 09:00:00 3.7 4 Este 8 Este 0.1 916.2 0.8 99
2020-02-10 08:00:00 3 4 Este 9 Sudeste 0 915.8 0.7 99
2020-02-10 07:00:00 3.7 0 Calma 6 Sur 0 915.5 0.1 99
2020-02-10 06:00:00 3.6 2 Sudeste 9 Sudeste 0 915.4 0 99
2020-02-10 05:00:00 3.7 3 Este 10 Sudeste 0 915.1 -0.7 99
2020-02-10 04:00:00 4.7 3 Nordeste 9 Este 0 915.4 -0.5 99
2020-02-10 03:00:00 5.4 3 Sur 7 Este 0 915.4 -0.6 99
2020-02-10 02:00:00 5.5 4 Este 7 Este 0 915.8 -0.4 99
2020-02-10 01:00:00 6.2 0 Calma 8 Sudeste 0 915.9 -0.2 99
2020-02-10 00:00:00 6.3 3 Sudeste 6 Sudeste 0 916 0 99
2020-02-09 23:00:00 6 0 Calma 6 Sur 0 916.2 0.9 99
2020-02-09 22:00:00 5.8 3 Nordeste 7 Este 0 916.1 1.1 99
2020-02-09 21:00:00 6.4 0 Calma 5 Sudoeste 0 916 1.7 98
2020-02-09 20:00:00 6.4 0 Calma 6 Oeste 0 915.3 1 96
2020-02-09 19:00:00 6.5 5 Oeste 10 Sudoeste 0 915 0.7 96
2020-02-09 18:00:00 6.9 7 Sudoeste 12 Sudoeste 0 914.3 0.6 96
2020-02-09 17:00:00 6.8 5 Sur 15 Sudoeste 0 914.3 -0.3 99
2020-02-09 16:00:00 6 6 Sudoeste 12 Sur 0 914.3 -0.9 99
2020-02-09 15:00:00 5.4 4 Sudoeste 10 Sur 0 913.7 -1.5 99
2020-02-09 14:00:00 5.1 2 Sudoeste 6 Sudoeste 0 914.6 -0.2 99
2020-02-09 13:00:00 4.7 2 Noroeste 9 Noroeste 0 915.2 0.7 99
2020-02-09 12:00:00 4.5 4 Noroeste 8 Oeste 0 915.2 1.3 99
2020-02-09 11:00:00 3.3 5 Noroeste 11 Noroeste 0 914.8 1.7 99
2020-02-09 10:00:00 2.6 7 Noroeste 13 Noroeste 0.1 914.5 1.5 99
2020-02-09 09:00:00 2.6 0 Calma 9 Este 0 913.9 1.5 99
2020-02-09 08:00:00 2.5 4 Nordeste 9 Norte 0 913.1 1.3 99
2020-02-09 07:00:00 2.2 0 Calma 5 Sudeste 0 913 1.1 99
2020-02-09 06:00:00 1.8 0 Calma 9 Este 0 912.4 0.7 99
2020-02-09 05:00:00 1.7 0 Calma 11 Este 0 911.8 0.4 99
2020-02-09 04:00:00 2.5 8 Este 11 Este 0.1 911.9 0 99
2020-02-09 03:00:00 3 6 Este 12 Sudeste 0 911.7 0 99
2020-02-09 02:00:00 3.3 6 Este 12 Sur 0 911.4 -0.3 99
2020-02-09 01:00:00 3.8 0 Calma 9 Noroeste 0 911.9 0.7 99
2020-02-09 00:00:00 4.2 6 Noroeste 9 Norte 0 911.7 0.9 99
2020-02-08 23:00:00 4.2 6 Norte 9 Noroeste 0 911.7 1.1 99
2020-02-08 22:00:00 4.9 4 Este 9 Nordeste 0 911.2 1.3 99
2020-02-08 21:00:00 5.1 0 Calma 6 Norte 0 910.8 1.4 99
2020-02-08 20:00:00 5.7 2 Norte 8 Sur 0 910.6 1.8 99
2020-02-08 19:00:00 6.2 7 Sur 14 Sur 0 909.9 1.5 97
2020-02-08 18:00:00 7.3 9 Sur 13 Sur 0 909.4 1 91
2020-02-08 17:00:00 8.5 6 Sur 16 Sudeste 0 908.8 -0.2 86
2020-02-08 16:00:00 7.6 9 Sudeste 15 Sudeste 0 908.4 -1.3 94
2020-02-08 15:00:00 7.2 10 Sudeste 14 Sudeste 0 908.4 -1.5 99
2020-02-08 14:00:00 6.5 3 Oeste 9 Noroeste 0 909 -0.5 99
2020-02-08 13:00:00 4.9 7 Noroeste 10 Noroeste 0 909.7 0.5 99
2020-02-08 12:00:00 4.8 2 Noroeste 8 Noroeste 0 909.9 1.2 99
2020-02-08 11:00:00 4.8 2 Sudeste 11 Este 0 909.5 0.9 99
2020-02-08 10:00:00 4 2 Norte 12 Nordeste 0 909.2 1.3 99
2020-02-08 09:00:00 3.9 5 Este 13 Este 0 908.7 1 99
2020-02-08 08:00:00 3.8 5 Nordeste 10 Nordeste 0.1 908.6 0.8 99
2020-02-08 07:00:00 4.2 5 Norte 9 Norte 0 907.9 -0.3 99
2020-02-08 06:00:00 4.4 3 Este 7 Este 0 907.7 -0.5 99
2020-02-08 05:00:00 4.1 5 Este 9 Este 0 907.8 -0.4 99
2020-02-08 04:00:00 4.2 2 Norte 7 Sudeste 0 908.2 0 99
2020-02-08 03:00:00 4.6 4 Nordeste 5 Nordeste 0 908.2 0 99
2020-02-08 02:00:00 4.8 3 Nordeste 6 Norte 0 908.2 -0.3 99
2020-02-08 01:00:00 5.1 4 Este 11 Sudeste 0 908.2 -0.4 99
2020-02-08 00:00:00 5.6 7 Sudeste 11 Sudeste 0 908.2 0 98
2020-02-07 23:00:00 6.2 6 Norte 9 Noroeste 0 908.5 0.3 97
2020-02-07 22:00:00 6 2 Noroeste 7 Sudoeste 0 908.6 0.9 96
2020-02-07 21:00:00 6 3 Sur 9 Sudoeste 0 908.2 0.6 94
2020-02-07 20:00:00 6.4 4 Sur 10 Sudoeste 0 908.2 0.9 91
2020-02-07 19:00:00 7.3 3 Sudoeste 11 Sur 0 907.7 0.5 85
2020-02-07 18:00:00 9 7 Sur 15 Sudoeste 0 907.6 0.2 77
2020-02-07 17:00:00 9.5 8 Sur 27 Sudeste 0 907.3 -0.7 74
2020-02-07 16:00:00 10 8 Sur 17 Sur 0 907.2 -1.4 72
2020-02-07 15:00:00 9.3 9 Sudeste 15 Sur 0 907.4 -1.4 74
2020-02-07 14:00:00 8.9 4 Sudoeste 41 Sudeste 0 908 -0.6 77
2020-02-07 13:00:00 7.2 5 Sur 30 Sudeste 0 908.6 0.3 83
2020-02-07 12:00:00 7.1 5 Sur 23 Sudeste 0 908.8 1.1 87
2020-02-07 11:00:00 5.4 5 Sudeste 21 Sudeste 0 908.6 1 93
2020-02-07 10:00:00 4.4 5 Sudeste 17 Sudeste 0 908.3 1 98
2020-02-07 09:00:00 3.3 3 Sur 5 Sudeste 0 907.7 0.5 98
2020-02-07 08:00:00 3.6 4 Sudeste 6 Sudeste 0 907.6 0.3 96
2020-02-07 07:00:00 3.7 0 Calma 4 Sudeste 0 907.3 -0.4 94
2020-02-07 06:00:00 4.1 2 Sur 4 Sur 0 907.2 -0.4 93
2020-02-07 05:00:00 4.3 0 Calma 4 Este 0 907.3 -0.5 93
2020-02-07 04:00:00 4.4 2 Este 5 Este 0 907.7 -0.5 91
2020-02-07 03:00:00 4.7 4 Este 5 Este 0 907.6 -1 90
2020-02-07 02:00:00 5.2 3 Este 5 Sudeste 0 907.8 -0.6 88
2020-02-07 01:00:00 5.8 3 Este 6 Este 0 908.2 -0.1 87
2020-02-07 00:00:00 5.9 3 Este 5 Noroeste 0 908.6 0.4 87
2020-02-06 23:00:00 6.1 4 Norte 7 Norte 0 908.4 0.3 88
2020-02-06 22:00:00 6 5 Noroeste 9 Noroeste 0 908.3 0.4 90
2020-02-06 21:00:00 5.8 6 Noroeste 9 Noroeste 0 908.2 0.6 88
2020-02-06 20:00:00 5.6 5 Noroeste 8 Noroeste 0 908.1 0.8 88
2020-02-06 19:00:00 5.9 5 Noroeste 7 Oeste 0 907.9 0.4 85
2020-02-06 18:00:00 6.6 3 Sudeste 10 Sudeste 0 907.6 0 85
2020-02-06 17:00:00 6.8 8 Sudeste 14 Sudeste 0 907.3 -1.3 83
2020-02-06 16:00:00 8.2 8 Sur 12 Sudeste 0 907.5 -2 79
2020-02-06 15:00:00 7.6 8 Sudeste 17 Este 0 907.6 -2.7 83
2020-02-06 14:00:00 7.2 8 Sudeste 29 Sudeste 0 908.6 -1.5 85
2020-02-06 13:00:00 6 9 Sudeste 18 Sudeste 0 909.5 -0.4 89
2020-02-06 12:00:00 4.6 8 Sudeste 26 Sudeste 0 910.3 0.5 90
2020-02-06 11:00:00 4.8 5 Sudeste 35 Este 0 910.1 0.9 87
2020-02-06 10:00:00 4.5 4 Sudeste 36 Sudeste 0 909.9 1.1 87
2020-02-06 09:00:00 2.6 0 Calma 9 Este 0 909.8 1 91
2020-02-06 08:00:00 2.5 6 Este 9 Sudeste 0 909.2 0.3 88
2020-02-06 07:00:00 3.6 6 Este 9 Este 0 908.8 -0.3 84
2020-02-06 06:00:00 4.1 3 Nordeste 7 Norte 0 908.8 -0.5 81
2020-02-06 05:00:00 4.3 4 Norte 6 Nordeste 0 908.9 -0.8 82
2020-02-06 04:00:00 4.9 4 Nordeste 9 Nordeste 0 909.1 -1 76
2020-02-06 03:00:00 4.9 4 Nordeste 8 Nordeste 0 909.3 -1.3 72
2020-02-06 02:00:00 5 4 Nordeste 6 Nordeste 0 909.7 -1.1 76
2020-02-06 01:00:00 4.7 5 Este 7 Este 0 910.1 -0.6 64
2020-02-06 00:00:00 5.4 4 Este 11 Este 0 910.6 0 53
2020-02-05 23:00:00 5.4 6 Noroeste 12 Noroeste 0 910.8 0.3 51
2020-02-05 22:00:00 6.9 8 Noroeste 12 Noroeste 0 910.7 0.8 49
2020-02-05 21:00:00 6.7 6 Norte 9 Norte 0 910.6 1.1 48
2020-02-05 20:00:00 6.9 3 Nordeste 6 Sur 0 910.5 0.8 46
2020-02-05 19:00:00 8 5 Sur 16 Sudeste 0 909.9 -0.2 44
2020-02-05 18:00:00 9.6 7 Sudeste 12 Sudeste 0 909.5 -1.1 44
2020-02-05 17:00:00 10.6 7 Sudeste 12 Sur 0 909.7 -1.8 45
2020-02-05 16:00:00 10.7 5 Sudeste 12 Este 0 910.1 -2.3 45
2020-02-05 15:00:00 10.3 4 Sur 42 Sudeste 0 910.6 -2.3 49
2020-02-05 14:00:00 8.8 5 Este 30 Sudeste 0 911.5 -1.3 51
2020-02-05 13:00:00 8.3 7 Sudeste 18 Sudeste 0 912.4 -0.5 52
2020-02-05 12:00:00 7.4 9 Este 19 Sudeste 0 912.9 0.2 53
2020-02-05 11:00:00 6.1 4 Este 21 Sudeste 0 912.8 0.4 57
2020-02-05 10:00:00 4.6 5 Este 22 Este 0 912.9 0.8 59
2020-02-05 09:00:00 2.9 7 Sudeste 16 Este 0 912.7 0.6 61
2020-02-05 08:00:00 1.9 0 Calma 9 Sudeste 0 912.4 0.2 60
2020-02-05 07:00:00 3 2 Sur 12 Sudeste 0 912.1 -0.4 64
2020-02-05 06:00:00 4.4 3 Este 6 Nordeste 0 912.1 -0.9 53
2020-02-05 05:00:00 4 4 Sudeste 8 Este 0 912.2 -1.2 56
2020-02-05 04:00:00 4.4 3 Sur 13 Sudeste 0 912.5 -1.3 62
2020-02-05 03:00:00 5.8 4 Sudoeste 10 Este 0 913 -0.6 56
2020-02-05 02:00:00 5.9 3 Oeste 9 Noroeste 0 913.4 -0.7 62
2020-02-05 01:00:00 6.8 4 Oeste 12 Norte 0 913.8 -0.2 61
2020-02-05 00:00:00 9.2 8 Norte 24 Nordeste 0 913.6 -0.1 42
2020-02-04 23:00:00 8.9 8 Nordeste 23 Nordeste 0 914.1 0.5 55
2020-02-04 22:00:00 9.4 13 Nordeste 37 Norte 0 914 0.8 60
2020-02-04 21:00:00 9.9 21 Norte 37 Norte 0 913.7 1 63
2020-02-04 20:00:00 10.5 17 Norte 37 Norte 0 913.6 1.4 60
2020-02-04 19:00:00 11.7 13 Nordeste 30 Nordeste 0 913.2 0.8 50
2020-02-04 18:00:00 14.3 10 Sudeste 15 Sudeste 0 912.7 0 49
2020-02-04 12:00:00 13.8 6 Sudeste 15 Sudeste 0 914.5 0.2 62
2020-02-04 11:00:00 13.4 2 Sudeste 8 Este 0 914.3 0.1 56
2020-02-04 10:00:00 10.5 0 Calma 10 Norte 0 914.3 0.6 68
2020-02-04 09:00:00 7.7 0 Calma 11 Noroeste 0 914.3 0.2 85
2020-02-04 08:00:00 7.4 0 Calma 13 Este 0 914.2 0.4 85
2020-02-04 07:00:00 6.9 5 Este 10 Sudeste 0 913.7 -0.4 90
2020-02-04 06:00:00 7.7 8 Sudeste 12 Sur 0 914.1 -0.4 76
2020-02-04 05:00:00 9.6 3 Sudeste 10 Norte 0 913.8 -1.1 62
2020-02-04 04:00:00 9.5 0 Calma 8 Norte 0 914.1 -1.3 65
2020-02-04 03:00:00 9.9 5 Este 8 Nordeste 0 914.5 -0.9 64
2020-02-04 02:00:00 10.5 5 Sudeste 9 Sudeste 0 914.9 0.1 62
2020-02-04 01:00:00 10.6 5 Norte 9 Este 0 915.4 0.3 64
2020-02-04 00:00:00 10 6 Noroeste 12 Noroeste 0 915.4 0.1 66
2020-02-03 23:00:00 10.8 2 Norte 14 Este 0 914.8 -0.1 62
2020-02-03 22:00:00 10.8 3 Este 13 Este 0 915.1 0.7 62
2020-02-03 21:00:00 11.2 2 Este 8 Este 0 915.3 1.3 58
2020-02-03 20:00:00 11.7 5 Este 12 Sudeste 0 914.9 0.8 55
2020-02-03 19:00:00 12.8 5 Sudeste 10 Este 0 914.4 0.3 53
2020-02-03 18:00:00 14.7 6 Sudeste 14 Sur 0 914 -0.4 51
2020-02-03 17:00:00 16.3 8 Sur 19 Sur 0 914.1 -0.8 47
2020-02-03 16:00:00 16.2 12 Sur 18 Sur 0 914.1 -1.8 50
2020-02-03 15:00:00 15.8 8 Sur 20 Sur 0 914.4 -1.9 51
2020-02-03 14:00:00 15.5 7 Sur 18 Sudoeste 0 914.9 -1.6 53
2020-02-03 13:00:00 13.9 5 Sudoeste 16 Sudeste 0 915.9 -0.5 55
2020-02-03 12:00:00 13.2 3 Sur 9 Sudeste 0 916.3 0.1 59
2020-02-03 11:00:00 10.1 3 Noroeste 4 Noroeste 0 916.5 0.7 62
2020-02-03 10:00:00 10.6 0 Calma 14 Sudeste 0 916.4 0.7 62
2020-02-03 09:00:00 7.7 5 Este 6 Este 0 916.2 0.7 70
2020-02-03 08:00:00 8.3 4 Noroeste 7 Noroeste 0 915.8 0.5 62
2020-02-03 07:00:00 6.2 0 Calma 9 Norte 0 915.7 0 99
2020-02-03 06:00:00 5.2 4 Norte 6 Noroeste 0.1 915.5 -0.6 99
2020-02-03 05:00:00 4.9 0 Calma 7 Sur 0 915.3 -1 99
2020-02-03 04:00:00 5.7 0 Calma 10 Noroeste 0 915.7 -1.1 99
2020-02-03 03:00:00 4.5 5 Sur 10 Noroeste 0 916.1 -0.7 99
2020-02-03 02:00:00 5.3 6 Nordeste 9 Nordeste 0 916.3 -0.6 99
2020-02-03 01:00:00 6.2 3 Norte 8 Nordeste 0.1 916.8 -0.1 99
2020-02-03 00:00:00 7.1 0 Calma 6 Noroeste 0 916.8 0.2 99
2020-02-02 23:00:00 7 2 Nordeste 8 Este 0 916.9 0.7 99
2020-02-02 22:00:00 7.5 2 Norte 8 Este 0 916.9 1.2 99
2020-02-02 21:00:00 8.2 4 Norte 8 Noroeste 0 916.6 1.5 99
2020-02-02 20:00:00 8.5 0 Calma 5 Sudoeste 0 916.2 1.2 99
2020-02-02 19:00:00 8.7 0 Calma 5 Sudoeste 0 915.7 0.7 99
2020-02-02 18:00:00 8.8 3 Sudoeste 9 Noroeste 0 915.1 0 99
2020-02-02 17:00:00 8.9 4 Sudoeste 9 Sudoeste 0 915 0 99
2020-02-02 16:00:00 9 3 Sudoeste 6 Sudeste 0 915 -0.3 99
2020-02-02 15:00:00 8.8 2 Sudeste 9 Sudeste 0 915.1 -0.9 99
2020-02-02 14:00:00 8.6 2 Sur 10 Sur 0 915 -0.9 99
2020-02-02 13:00:00 8.5 0 Calma 8 Sudeste 0 915.3 -0.4 99
2020-02-02 12:00:00 8 2 Sudeste 10 Este 0 916 0.8 99
2020-02-02 11:00:00 7.6 3 Este 9 Este 0 915.9 1.4 99
2020-02-02 10:00:00 6.4 4 Noroeste 9 Noroeste 0 915.7 1.9 99
2020-02-02 09:00:00 6.1 4 Noroeste 8 Noroeste 0 915.2 1.6 99
2020-02-02 08:00:00 6.2 2 Norte 6 Norte 0 914.5 1.4 99
2020-02-02 07:00:00 6.4 3 Norte 11 Este 0.1 913.8 0.6 99
2020-02-02 06:00:00 6 0 Calma 10 Nordeste 0 913.6 0.2 99
2020-02-02 05:00:00 5.1 3 Nordeste 9 Nordeste 0 913.1 -0.4 99
2020-02-02 04:00:00 6.5 5 Nordeste 10 Este 0.1 913.2 -0.2 99
2020-02-02 03:00:00 6.5 3 Oeste 13 Noroeste 0 913.4 0.2 99
2020-02-02 02:00:00 5.8 6 Este 14 Sudeste 0 913.5 -0.1 99
2020-02-02 01:00:00 8.4 5 Noroeste 11 Noroeste 0 913.4 0.3 99
2020-02-02 00:00:00 8.1 6 Noroeste 10 Sudeste 0.1 913.2 0.7 99
2020-02-01 23:00:00 7.9 8 Sudeste 13 Sudeste 0 913.6 1.4 99
2020-02-01 22:00:00 9.4 0 Calma 9 Sudeste 0 913.1 1.4 94
2020-02-01 21:00:00 9.6 0 Calma 14 Sudoeste 0 912.5 1.3 99
2020-02-01 20:00:00 9.8 4 Sudoeste 13 Sudoeste 0 912.2 0.9 99
2020-02-01 19:00:00 10.4 8 Sur 18 Sudoeste 0 911.7 0.8 98
2020-02-01 18:00:00 12.3 13 Sudoeste 27 Sudoeste 0 911.2 0.4 88
2020-02-01 17:00:00 12.7 19 Sudoeste 28 Sudoeste 0 911.3 0.3 86
2020-02-01 16:00:00 14.5 13 Sudoeste 24 Sudoeste 0 910.9 -0.5 71
2020-02-01 15:00:00 14.8 9 Sudoeste 21 Sudoeste 0 910.8 -0.7 55
2020-02-01 14:00:00 14.1 3 Sudoeste 15 Sudeste 0 911 0.5 64
2020-02-01 13:00:00 13.2 5 Sudeste 21 Sudoeste 0 911.4 1.8 75
2020-02-01 12:00:00 13.6 12 Sudoeste 25 Sudoeste 0 911.5 3.1 74
2020-02-01 11:00:00 11.1 10 Sur 19 Sudoeste 0 910.5 2.8 95
2020-02-01 10:00:00 10 0 Calma 16 Sudoeste 0 909.6 1.9 99
2020-02-01 09:00:00 8.6 8 Sur 20 Sudoeste 0 908.4 0.7 99
2020-02-01 08:00:00 8.5 7 Sur 23 Oeste 0 907.7 0.2 99
2020-02-01 07:00:00 8.6 4 Oeste 22 Sudoeste 0 907.7 -0.1 99
2020-02-01 06:00:00 8.4 18 Sudoeste 24 Sudoeste 0 907.7 -0.1 99
2020-02-01 05:00:00 8.3 8 Sudoeste 15 Sudoeste 0.1 907.5 -0.8 99
2020-02-01 04:00:00 7.9 4 Sudoeste 11 Oeste 0.1 907.8 -0.5 99
2020-02-01 03:00:00 7.9 0 Calma 8 Oeste 0 907.8 -0.9 99
2020-02-01 02:00:00 8.1 5 Sudoeste 11 Sur 0.1 908.3 -0.7 99
2020-02-01 01:00:00 8 2 Sur 8 Sur 0 908.3 -0.6 99
2020-02-01 00:00:00 8.1 0 Calma 7 Sudoeste 0.2 908.7 0.3 99
2020-01-31 23:00:00 8.2 2 Sur 6 Sudoeste 0 909 0.8 99
2020-01-31 22:00:00 8.4 2 Sur 8 Sudoeste 0 908.9 0.7 99
2020-01-31 21:00:00 8.4 5 Sur 13 Sudoeste 0 908.4 0.3 99
2020-01-31 20:00:00 8.4 8 Sur 12 Sur 0 908.2 0.1 99
2020-01-31 19:00:00 8.8 5 Sur 13 Sur 0 908.2 -0.1 99
2020-01-31 18:00:00 9.7 8 Sur 14 Sur 0 908.1 -0.5 94
2020-01-31 17:00:00 10.4 8 Sur 22 Sudoeste 0 908.1 -0.8 87
2020-01-31 16:00:00 10.2 11 Sudoeste 21 Sur 0 908.3 -1.2 89
2020-01-31 15:00:00 10.7 10 Sudoeste 18 Sudoeste 0 908.6 -1.4 94
2020-01-31 14:00:00 8.8 4 Sudoeste 28 Este 0 908.9 -0.9 99
2020-01-31 13:00:00 7.7 4 Sudeste 10 Sudoeste 0 909.5 -0.5 99
2020-01-31 12:00:00 7.1 5 Sudeste 11 Este 0 910 0.7 99
2020-01-31 11:00:00 6.7 0 Calma -- -- 0 909.8 0.9 99
2020-01-31 10:00:00 6.1 0 Calma -- -- 0 910 1.6 99
2020-01-31 09:00:00 6 0 Calma 7 Sudeste 0 909.3 0.9 99
2020-01-31 08:00:00 6.1 3 Sudeste 11 Este 0 908.9 0.4 99
2020-01-31 07:00:00 6 7 Este 9 Este 0 908.4 -0.2 99
2020-01-31 06:00:00 6 0 Calma 5 Este 0.1 908.4 -0.4 99
2020-01-31 05:00:00 5.8 0 Calma 7 Sur 0 908.5 -0.4 99
2020-01-31 04:00:00 5.6 0 Calma 8 Sur 0 908.6 -0.4 99
2020-01-31 03:00:00 5.7 0 Calma 10 Sudoeste 0 908.8 -0.2 99
2020-01-31 02:00:00 5.9 6 Sudoeste 10 Sur 0 908.9 -0.2 99
2020-01-31 01:00:00 5.9 6 Este 8 Este 0 909 0 99
2020-01-31 00:00:00 5.9 2 Sur 10 Sur 0.1 909 0.3 99
2020-01-30 23:00:00 5.8 5 Sur 9 Sur 0 909.1 0.7 99
2020-01-30 22:00:00 6 3 Sudeste 11 Sudeste 0.1 909 0.8 99
2020-01-30 21:00:00 6.3 3 Sudoeste 12 Sudoeste 0 908.7 0.6 99
2020-01-30 20:00:00 6.3 10 Sudoeste 23 Sudoeste 0 908.4 0.6 99
2020-01-30 19:00:00 6.3 14 Sudoeste 22 Sudoeste 0 908.2 0.2 98
2020-01-30 18:00:00 7.6 10 Sudoeste 15 Sudoeste 0 908.1 0.1 91
2020-01-30 17:00:00 8.3 9 Sudoeste 18 Sudoeste 0 907.8 -0.8 91
2020-01-30 16:00:00 8 8 Sur 15 Sur 0 908 -1 98
2020-01-30 15:00:00 8 7 Sur 15 Sudoeste 0 908 -1.6 99
2020-01-30 14:00:00 6.9 14 Sudoeste 19 Sudoeste 0 908.6 -1 99
2020-01-30 13:00:00 6.6 7 Sudoeste 13 Sudoeste 0 909 -0.2 99
2020-01-30 12:00:00 6.6 0 Calma 17 Este 0 909.6 1 99
2020-01-30 11:00:00 5.5 0 Calma -- -- 0 909.6 1.5 99
2020-01-30 10:00:00 5.5 0 Calma -- -- 0.1 909.2 1.6 99
2020-01-30 09:00:00 5.3 0 Calma -- -- 0 908.6 1 99
2020-01-30 08:00:00 5.5 0 Calma -- -- 0 908.1 0.1 99
2020-01-30 07:00:00 5.6 0 Calma -- -- 0 907.6 -0.8 99
2020-01-30 06:00:00 5.8 0 Calma -- -- 0.1 907.6 -1 99
2020-01-30 05:00:00 6 0 Calma -- -- 0 908 -0.8 99
2020-01-30 04:00:00 6 0 Calma -- -- 0 908.4 -0.5 99
2020-01-30 03:00:00 6.3 0 Calma -- -- 0 908.6 -0.3 99
2020-01-30 02:00:00 6.5 0 Calma -- -- 0 908.8 -0.4 99
2020-01-30 01:00:00 6.6 0 Calma -- -- 0 908.9 -0.2 99
2020-01-30 00:00:00 6.8 0 Calma -- -- 0 908.9 -0.2 99
2020-01-29 23:00:00 7.1 0 Calma -- -- 0 909.2 0.4 99
2020-01-29 22:00:00 7.3 0 Calma -- -- 0 909.1 0.7 99
2020-01-29 21:00:00 7.4 5 Sudoeste 18 Sudoeste 0.1 909.1 1.1 99
2020-01-29 20:00:00 7.3 7 Sur 17 Sudoeste 0 908.8 0.8 99
2020-01-29 19:00:00 7.7 12 Sudoeste 21 Sudoeste 0 908.4 0.5 99
2020-01-29 18:00:00 8.5 12 Sudoeste 20 Sudoeste 0 908 0.1 94
2020-01-29 17:00:00 8.9 10 Sur 20 Sur 0 908 -0.3 96
2020-01-29 16:00:00 9.2 11 Sudoeste 21 Sudoeste 0 907.9 -1.1 92
2020-01-29 15:00:00 9.4 8 Sur 23 Sudoeste 0 907.9 -1.6 94
2020-01-29 14:00:00 9.6 7 Sudeste 22 Sudeste 0 908.3 -1.1 93
2020-01-29 13:00:00 8.5 2 Sudeste 13 Sur 0 909 0.3 99
2020-01-29 12:00:00 8.3 10 Sur 15 Sur 0 909.5 0.9 99
2020-01-29 11:00:00 7.3 6 Sur 15 Sur 0 909.4 1.1 99
2020-01-29 10:00:00 7.3 0 Calma 9 Oeste 0 908.7 1.1 99
2020-01-29 09:00:00 6.4 0 Calma 4 Nordeste 0 908.6 1.5 99
2020-01-29 08:00:00 6.4 0 Calma 6 Sudeste 0 908.3 1 99
2020-01-29 07:00:00 7.2 4 Sur 12 Sudeste 0 907.6 -0.1 93
2020-01-29 06:00:00 7.8 5 Oeste 12 Sudoeste 0 907.1 -0.3 88
2020-01-29 05:00:00 7.6 0 Calma 8 Este 0 907.3 -0.1 95
2020-01-29 04:00:00 8.4 4 Sur 26 Oeste 0 907.7 0.4 83
2020-01-29 03:00:00 8.6 10 Sudoeste 18 Sudoeste 0 907.4 0.4 84
2020-01-29 02:00:00 8.7 6 Sudoeste 26 Sudoeste 0 907.4 0.3 83
2020-01-29 01:00:00 9 18 Sudoeste 33 Sudoeste 0 907.3 0 82
2020-01-29 00:00:00 8.5 15 Oeste 29 Sudoeste 0 907 -0.2 93
2020-01-28 23:00:00 7.4 19 Sudoeste 28 Sudoeste 0 907.1 0.1 99
2020-01-28 22:00:00 7 15 Sudoeste 24 Sudoeste 0 907.3 0.4 99
2020-01-28 21:00:00 7.1 9 Sudoeste 24 Sudoeste 0 907.2 0.9 99
2020-01-28 20:00:00 7.4 15 Sudoeste 28 Sudoeste 0 907 0.8 99
2020-01-28 19:00:00 8.4 17 Sudoeste 30 Sudoeste 0 906.9 0.6 97
2020-01-28 18:00:00 8.2 20 Sudoeste 52 Sudoeste 0 906.3 0 99
2020-01-28 17:00:00 8.8 18 Sudoeste 35 Sudoeste 0 906.2 -0.6 99
2020-01-28 16:00:00 9 23 Sudoeste 34 Sudoeste 0 906.3 -0.8 99
2020-01-28 15:00:00 9 14 Sudoeste 27 Sur 0 906.3 -1.3 99
2020-01-28 14:00:00 9 17 Sudoeste 28 Sudoeste 0 906.8 -0.5 99
2020-01-28 13:00:00 8 20 Sudoeste 28 Sudoeste 0 907.1 0.2 99
2020-01-28 12:00:00 7.2 13 Sur 25 Sur 0 907.6 1.2 99
2020-01-28 11:00:00 6.8 14 Sudoeste 27 Sudoeste 0 907.3 1.3 99
2020-01-28 10:00:00 6 15 Sudoeste 27 Sudoeste 0.1 906.9 1.2 99
2020-01-28 09:00:00 5.6 14 Sudoeste 21 Sudoeste 0 906.4 0.5 99
2020-01-28 08:00:00 5.3 11 Sudoeste 21 Sudoeste 0 906 0.4 99
2020-01-28 07:00:00 5.4 10 Sudoeste 19 Sudoeste 0 905.7 -0.2 99
2020-01-28 06:00:00 5.3 9 Sudoeste 15 Sudoeste 0 905.9 -0.1 99
2020-01-28 05:00:00 5.4 9 Sur 19 Sudoeste 0 905.6 -0.5 99
2020-01-28 04:00:00 5.3 8 Sur 23 Sudoeste 0 905.9 -0.2 99
2020-01-28 03:00:00 5.1 10 Sudoeste 19 Sur 0 906 -0.3 99
2020-01-28 02:00:00 4.9 6 Sur 18 Sur 0 906.1 -0.5 99
2020-01-28 01:00:00 4.7 9 Sudoeste 22 Sudoeste 0.1 906.1 -0.5 99
2020-01-28 00:00:00 4.5 14 Sudoeste 22 Sur 0 906.3 -0.1 99
2020-01-27 23:00:00 4 10 Sudoeste 17 Sudoeste 0 906.6 0.3 99
2020-01-27 22:00:00 3.6 8 Sur 15 Sur 0 906.6 0.4 99
2020-01-27 21:00:00 3.9 5 Sudoeste 17 Sudoeste 0 906.4 0.3 99
2020-01-27 20:00:00 4 9 Sudoeste 18 Sudoeste 0 906.3 0.1 99
2020-01-27 19:00:00 4 6 Sur 21 Sudoeste 0 906.2 -0.1 99
2020-01-27 18:00:00 4.1 13 Sudoeste 21 Sudoeste 0 906.1 -0.6 99
2020-01-27 17:00:00 3.4 7 Sudoeste 14 Sudoeste 0.1 906.2 -1 99
2020-01-27 16:00:00 3.1 2 Sudoeste 17 Sudoeste 0 906.3 -1.5 99
2020-01-27 15:00:00 3.4 8 Sudoeste 17 Sur 0 906.7 -1.5 99
2020-01-27 14:00:00 2.7 8 Sudoeste 15 Sur 0 907.2 -1.4 99
2020-01-27 13:00:00 2.2 10 Sur 16 Sur 0.1 907.8 -0.4 99
2020-01-27 12:00:00 1.4 7 Sur 10 Sur 0 908.2 0 99
2020-01-27 11:00:00 -0.3 0 Calma 11 Noroeste 0 908.6 0.8 99
2020-01-27 10:00:00 0.9 6 Oeste 16 Este 0.1 908.2 0.5 99
2020-01-27 09:00:00 -0.7 2 Sudeste 12 Sudeste 0 908.2 0.7 99
2020-01-27 08:00:00 -1.4 3 Sur 6 Sudeste 0 907.8 0.3 99
2020-01-27 07:00:00 -1.8 3 Sur 6 Sudeste 0 907.7 -0.2 99
2020-01-27 06:00:00 -0.4 3 Este 8 Sur 0 907.5 -1 97
2020-01-27 05:00:00 1 0 Calma 5 Noroeste 0 907.5 -1.1 93
2020-01-27 04:00:00 1.4 0 Calma 5 Sudeste 0 907.9 -0.7 93
2020-01-27 03:00:00 1.2 3 Nordeste 8 Norte 0 908.5 -0.4 94
2020-01-27 02:00:00 0.8 0 Calma 12 Oeste 0 908.6 0.1 94
2020-01-27 01:00:00 1.5 6 Este 9 Sudeste 0 908.6 -0.2 90
2020-01-27 00:00:00 2.6 4 Norte 9 Norte 0 908.9 0.4 88
2020-01-26 23:00:00 2.2 3 Este 6 Este 0 908.5 0.4 98
2020-01-26 22:00:00 2.3 4 Nordeste 8 Este 0 908.8 1.3 99
2020-01-26 21:00:00 2.6 0 Calma 15 Sudoeste 0 908.5 1.3 99
2020-01-26 20:00:00 3.5 9 Sudoeste 20 Sudoeste 0 908.1 1.2 98
2020-01-26 19:00:00 3.9 15 Sudoeste 23 Sudoeste 0 907.5 0.9 97
2020-01-26 18:00:00 5.3 13 Sudoeste 22 Sudoeste 0 907.2 0.4 89
2020-01-26 17:00:00 7.6 8 Sudoeste 23 Oeste 0 906.9 -0.3 51
2020-01-26 16:00:00 8.1 8 Oeste 23 Oeste 0 906.6 -0.8 53
2020-01-26 15:00:00 7.3 8 Sudeste 17 Sur 0 906.8 -0.8 71
2020-01-26 14:00:00 6.3 9 Sur 15 Sur 0 907.2 0.2 83
2020-01-26 13:00:00 5.9 10 Sudeste 16 Sudeste 0 907.4 0.9 76
2020-01-26 12:00:00 6.5 7 Sur 10 Sur 0 907.6 1.8 75
2020-01-26 11:00:00 5.3 0 Calma 7 Este 0 907 1.8 88
2020-01-26 10:00:00 3.7 0 Calma 5 Sudoeste 0 906.5 1.8 99
2020-01-26 09:00:00 2.2 0 Calma 7 Este 0 905.8 1.6 99
2020-01-26 08:00:00 2.2 0 Calma 6 Noroeste 0 905.2 1.6 99
2020-01-26 07:00:00 2.3 0 Calma 6 Noroeste 0.1 904.7 0.9 99
2020-01-26 06:00:00 2.3 3 Nordeste 6 Sudeste 0 904.2 1.1 99
2020-01-26 05:00:00 2.2 3 Sudeste 9 Sur 0 903.6 0.5 99
2020-01-26 04:00:00 2.3 0 Calma 6 Sudoeste 0 903.8 0.7 99
2020-01-26 03:00:00 2.6 3 Sur 6 Sur 0 903.1 0.2 99
2020-01-26 02:00:00 2.6 0 Calma 11 Noroeste 0 903.1 0.5 99
2020-01-26 01:00:00 2.8 0 Calma 9 Noroeste 0.1 903.1 0.5 99
2020-01-26 00:00:00 3.1 0 Calma 7 Noroeste 0 902.9 0.8 99
2020-01-25 23:00:00 3.5 0 Calma 7 Nordeste 0.2 902.6 0.7 99
2020-01-25 22:00:00 3.5 0 Calma 6 Nordeste 0 902.6 1.1 99
2020-01-25 21:00:00 3.7 0 Calma 6 Nordeste 0.1 902.1 1 99
2020-01-25 20:00:00 3.6 0 Calma 9 Norte 0.2 901.9 0.9 99
2020-01-25 19:00:00 3.6 5 Norte 10 Norte 0.7 901.5 0.7 99
2020-01-25 18:00:00 4.3 0 Calma 9 Sur 1.8 901.1 0 99
2020-01-25 17:00:00 4.4 5 Sur 10 Sudeste 2.1 901 -0.6 99
2020-01-25 16:00:00 4.5 6 Sudeste 12 Sudeste 1.1 900.8 -1.6 99
2020-01-25 15:00:00 5.3 5 Sudoeste 13 Sur 0.2 901.1 -1.8 99
2020-01-25 14:00:00 5 5 Sur 12 Sur 0 901.6 -1 99
2020-01-25 13:00:00 4.6 6 Sur 14 Sudoeste 0 902.4 0 99
2020-01-25 12:00:00 4.3 9 Sur 21 Sudoeste 0 902.9 1.1 99
2020-01-25 11:00:00 4.1 10 Sur 18 Sur 0 902.6 1.2 99
2020-01-25 10:00:00 3.9 9 Sur 20 Sur 0 902.4 1 99
2020-01-25 09:00:00 3.9 13 Sur 22 Sudeste 0.5 901.8 0.4 99
2020-01-25 08:00:00 3.8 12 Sudeste 20 Sudeste 0.8 901.4 -0.4 99
2020-01-25 07:00:00 3.7 8 Sudeste 15 Sudeste 1.3 901.4 -0.7 99
2020-01-25 06:00:00 3.8 8 Este 16 Sudeste 1.6 901.4 -1.2 99
2020-01-25 05:00:00 3.6 10 Este 18 Este 2.2 901.8 -1.3 99
2020-01-25 04:00:00 4 10 Este 15 Este 0.2 902.1 -1.4 99
2020-01-25 03:00:00 4.2 9 Este 13 Este 0 902.6 -1.4 99
2020-01-25 02:00:00 4 5 Este 12 Nordeste 0 903.1 -1.3 99
2020-01-25 01:00:00 3.8 7 Este 10 Este 0 903.5 -0.9 99
2020-01-25 00:00:00 3.6 5 Nordeste 8 Nordeste 0 904 -0.4 99
2020-01-24 23:00:00 3.8 4 Nordeste 8 Nordeste 0 904.4 0.5 99
2020-01-24 22:00:00 4 2 Nordeste 6 Nordeste 0 904.4 0.4 99
2020-01-24 21:00:00 4 2 Nordeste 7 Este 0 904.4 0.6 99
2020-01-24 20:00:00 4.2 5 Este 10 Este 0 903.9 0.1 99
2020-01-24 19:00:00 4.3 4 Este 12 Este 0 904 0.2 99
2020-01-24 18:00:00 4.7 3 Sudeste 7 Sur 0 903.8 -0.7 99
2020-01-24 17:00:00 4.5 0 Calma 5 Noroeste 0 903.8 -1 99
2020-01-24 16:00:00 4.6 0 Calma 9 Sudoeste 0.1 903.8 -1.7 99
2020-01-24 15:00:00 3.7 4 Sudeste 9 Sudeste 0.1 904.5 -1.2 99
2020-01-24 14:00:00 3.4 8 Sudeste 17 Sudeste 0.6 904.8 -0.7 99
2020-01-24 13:00:00 3.3 8 Sudeste 17 Sudeste 0.4 905.5 0.2 99
2020-01-24 12:00:00 3 10 Sudeste 17 Sudeste 0.2 905.7 0.7 99
2020-01-24 11:00:00 3.2 9 Sudeste 14 Sudeste 0.6 905.5 1 99
2020-01-24 10:00:00 3 7 Sudeste 19 Sudeste 1.6 905.3 0.8 99
2020-01-24 09:00:00 3.2 12 Sudeste 19 Este 1.6 905 0.8 99
2020-01-24 08:00:00 3.6 10 Este 18 Este 0.4 904.5 0.3 99
2020-01-24 07:00:00 3.9 11 Este 18 Este 0 904.5 -0.1 98
2020-01-24 06:00:00 4 9 Este 17 Este 0 904.2 -0.5 98
2020-01-24 05:00:00 4.1 10 Este 16 Este 0.1 904.2 -0.6 97
2020-01-24 04:00:00 4.2 8 Este 14 Este 0 904.6 -0.2 95
2020-01-24 03:00:00 4.2 6 Este 14 Este 0 904.7 -0.3 94
2020-01-24 02:00:00 4.3 8 Este 12 Sudeste 0 904.8 0.1 94
2020-01-24 01:00:00 4 9 Este 19 Sudeste 0 904.8 0.2 94
2020-01-24 00:00:00 4.1 10 Sudeste 17 Este 0 905 0.8 92
2020-01-23 23:00:00 4.6 8 Este 15 Este 0 904.7 0.9 85
2020-01-23 22:00:00 4.7 8 Este 13 Nordeste 0 904.6 1.3 81
2020-01-23 21:00:00 4.7 10 Nordeste 29 Este 0 904.2 1 79
2020-01-23 20:00:00 4.7 8 Este 18 Este 0 903.8 0.9 78
2020-01-23 19:00:00 4.1 7 Nordeste 16 Nordeste 0 903.3 0.5 78
2020-01-23 18:00:00 5 8 Este 14 Sudeste 0 903.2 0.4 75
2020-01-23 17:00:00 6.2 9 Este 27 Este 0 902.9 -0.2 72
2020-01-23 16:00:00 6.1 10 Este 19 Este 0 902.8 -0.8 71
2020-01-23 15:00:00 6.4 11 Sudeste 21 Este 0.1 902.8 -1.4 70
2020-01-23 14:00:00 6.3 9 Este 21 Sudeste 0.1 903.1 -1.1 72
2020-01-23 13:00:00 5.7 7 Sudeste 15 Sudeste 0 903.6 -0.1 75
2020-01-23 12:00:00 5.2 9 Este 33 Sudeste -- 904.2 1.2 78
2020-01-23 11:00:00 3.9 11 Este 25 Este -- 904.2 1.4 82
2020-01-23 10:00:00 3.7 10 Nordeste 24 Nordeste -- 903.7 1.4 81
2020-01-23 09:00:00 2.2 12 Nordeste 22 Nordeste -- 903 0.7 88
2020-01-23 08:00:00 2.4 8 Nordeste 13 Norte -- 902.8 0.4 89
2020-01-23 07:00:00 2.1 6 Nordeste 15 Nordeste -- 902.3 -0.4 89
2020-01-23 06:00:00 1.5 7 Nordeste 16 Nordeste -- 902.3 -0.7 88
2020-01-23 05:00:00 1.8 8 Nordeste 24 Nordeste -- 902.4 -0.9 89
2020-01-23 04:00:00 2.2 11 Nordeste 23 Norte -- 902.7 -0.6 87
2020-01-23 03:00:00 2.5 12 Nordeste 26 Nordeste -- 903 -0.1 87
2020-01-23 02:00:00 2.5 17 Nordeste 31 Nordeste -- 903.3 0.4 87
2020-01-23 01:00:00 2.6 13 Nordeste 26 Nordeste -- 903.3 0.5 87
2020-01-23 00:00:00 2.7 10 Nordeste 22 Norte -- 903.1 0.4 90
2020-01-22 23:00:00 2.3 8 Nordeste 23 Norte -- 902.9 0.8 90
2020-01-22 22:00:00 2.6 18 Nordeste 30 Este -- 902.8 1 91
2020-01-22 21:00:00 3.4 7 Nordeste 23 Nordeste -- 902.7 1.1 82
2020-01-22 20:00:00 2.6 16 Este 35 Este -- 902.1 0.4 83
2020-01-22 19:00:00 3.6 16 Nordeste 26 Nordeste -- 901.8 -0.2 81
2020-01-22 18:00:00 4.9 13 Este 21 Este -- 901.6 -1.1 76
2020-01-22 17:00:00 6 12 Este 24 Este -- 901.7 -1.5 73
2020-01-22 16:00:00 6.5 8 Este 22 Este -- 902 -2.1 67
2020-01-22 15:00:00 6.2 11 Este 20 Nordeste -- 902.7 -1.7 73
2020-01-22 14:00:00 5.2 12 Nordeste 36 Sudeste -- 903.2 -1.4 80
2020-01-22 13:00:00 6.1 16 Este 35 Nordeste -- 904.1 0.1 76
2020-01-22 12:00:00 4.5 22 Este 34 Este -- 904.4 0.9 88
2020-01-22 11:00:00 2.7 22 Este 37 Este -- 904.6 1.3 94
2020-01-22 10:00:00 2.1 24 Nordeste 46 Nordeste -- 904 1.3 94
2020-01-22 09:00:00 1.8 32 Nordeste 49 Nordeste -- 903.5 0.9 93
2020-01-22 08:00:00 2.1 30 Este 47 Este -- 903.3 0.5 91
2020-01-22 07:00:00 2 35 Este 48 Este -- 902.7 -0.4 90
2020-01-22 06:00:00 2.1 33 Nordeste 50 Nordeste -- 902.6 -0.2 88
2020-01-22 05:00:00 2.2 32 Este 46 Nordeste -- 902.8 -0.1 86
2020-01-22 04:00:00 2.2 23 Nordeste 53 Nordeste -- 903.1 0.5 87
2020-01-22 03:00:00 2.9 33 Nordeste 55 Este -- 902.8 0.1 83
2020-01-22 02:00:00 2.8 22 Nordeste 47 Nordeste -- 902.9 0.6 87
2020-01-22 01:00:00 3 28 Nordeste 49 Nordeste -- 902.6 0.1 86
2020-01-22 00:00:00 3.1 32 Nordeste 52 Este -- 902.7 0.5 88